Time;durP1;ratioP1;P1;durP2;ratioP2;P2;SDS_P1;SDS_P2;PMS_P1;PMS_P2;Temp;Humidity;BMP_temperature;BMP_pressure;BME280_temperature;BME280_humidity;BME280_pressure;Samples;Min_cycle;Max_cycle;Signal;HPM_P1;HPM_P2
2023/12/19 00:00:12;;;;;;;82.57;30.63;;;7.20;99.90;;;;;;5060203;28;20507;-69
2023/12/19 00:02:39;;;;;;;89.57;31.98;;;7.20;99.90;;;;;;5060238;28;20060;-68
2023/12/19 00:05:09;;;;;;;84.90;31.35;;;7.10;99.90;;;;;;5060501;28;20025;-69
2023/12/19 00:07:34;;;;;;;89.07;31.00;;;7.10;99.90;;;;;;5060599;28;20025;-68
2023/12/19 00:10:00;;;;;;;71.68;26.10;;;7.10;99.90;;;;;;5057983;28;20025;-68
2023/12/19 00:12:26;;;;;;;83.03;31.45;;;7.20;99.90;;;;;;5060113;28;20035;-68
2023/12/19 00:14:51;;;;;;;86.10;30.85;;;7.10;99.90;;;;;;5060301;28;20106;-67
2023/12/19 00:17:17;;;;;;;87.60;32.30;;;7.20;99.90;;;;;;5060370;28;20024;-69
2023/12/19 00:19:42;;;;;;;91.05;32.13;;;7.10;99.90;;;;;;5064383;28;20040;-69
2023/12/19 00:22:08;;;;;;;81.85;29.27;;;7.10;99.90;;;;;;5063043;28;20041;-68
2023/12/19 00:24:33;;;;;;;79.13;29.10;;;7.10;99.90;;;;;;5063248;28;20056;-68
2023/12/19 00:26:59;;;;;;;82.07;31.15;;;7.10;99.90;;;;;;5062614;28;20021;-70
2023/12/19 00:29:25;;;;;;;68.18;22.90;;;7.10;99.90;;;;;;5063627;28;20025;-69
2023/12/19 00:31:51;;;;;;;73.10;28.13;;;7.10;99.90;;;;;;5064213;28;20040;-70
2023/12/19 00:34:17;;;;;;;80.22;27.98;;;7.10;99.90;;;;;;5064396;28;20021;-67
2023/12/19 00:36:43;;;;;;;74.72;27.45;;;7.10;99.90;;;;;;5062676;28;20029;-68
2023/12/19 00:39:09;;;;;;;69.85;25.63;;;7.10;99.90;;;;;;5064034;28;20052;-66
2023/12/19 00:41:34;;;;;;;81.63;30.92;;;7.10;99.90;;;;;;5062729;28;20029;-67
2023/12/19 00:44:01;;;;;;;79.85;26.25;;;7.10;99.90;;;;;;5064224;28;20115;-70
2023/12/19 00:46:26;;;;;;;65.68;25.88;;;7.10;99.90;;;;;;5064148;28;20044;-67
2023/12/19 00:48:52;;;;;;;73.38;27.80;;;7.10;99.90;;;;;;5064113;28;20619;-68
2023/12/19 00:51:18;;;;;;;69.10;27.75;;;7.10;99.90;;;;;;5064021;28;20021;-69
2023/12/19 00:53:43;;;;;;;75.15;25.55;;;7.10;99.90;;;;;;5063571;28;20045;-72
2023/12/19 00:56:09;;;;;;;71.82;28.35;;;7.10;99.90;;;;;;5062076;28;20019;-68
2023/12/19 00:58:36;;;;;;;61.72;24.40;;;7.10;99.90;;;;;;5063892;28;20029;-69
2023/12/19 01:01:05;;;;;;;51.75;19.17;;;7.10;99.90;;;;;;5063230;28;20017;-68
2023/12/19 01:03:31;;;;;;;61.70;25.48;;;7.10;99.90;;;;;;5063842;28;20057;-69
2023/12/19 01:06:00;;;;;;;59.08;23.30;;;7.10;99.90;;;;;;5063924;28;20025;-69
2023/12/19 01:08:26;;;;;;;61.53;24.58;;;7.10;99.90;;;;;;5063919;28;20025;-70
2023/12/19 01:10:53;;;;;;;50.80;19.75;;;7.10;99.90;;;;;;5063796;28;20024;-70
2023/12/19 01:13:19;;;;;;;61.97;23.65;;;7.10;99.90;;;;;;5062731;28;20025;-68
2023/12/19 01:15:44;;;;;;;66.00;24.45;;;7.10;99.90;;;;;;5063542;28;20043;-68
2023/12/19 01:18:10;;;;;;;61.20;25.08;;;7.10;99.90;;;;;;5062105;28;20032;-68
2023/12/19 01:20:35;;;;;;;68.13;25.85;;;7.10;99.90;;;;;;5063652;28;20031;-69
2023/12/19 01:23:04;;;;;;;60.90;23.65;;;7.10;99.90;;;;;;5063299;28;20041;-69
2023/12/19 01:25:29;;;;;;;72.75;27.40;;;7.10;99.90;;;;;;5062317;28;20025;-69
2023/12/19 01:27:55;;;;;;;54.17;20.38;;;7.10;99.90;;;;;;5063104;28;20088;-69
2023/12/19 01:30:23;;;;;;;65.55;26.98;;;7.00;99.90;;;;;;5062671;28;20483;-69
2023/12/19 01:32:49;;;;;;;59.42;21.73;;;7.00;99.90;;;;;;5062816;28;20543;-69
2023/12/19 01:35:15;;;;;;;57.53;23.10;;;7.00;99.90;;;;;;5063202;28;20065;-69
2023/12/19 01:37:42;;;;;;;62.30;25.13;;;7.00;99.90;;;;;;5062822;28;20017;-68
2023/12/19 01:40:08;;;;;;;68.40;27.45;;;7.00;99.90;;;;;;5063263;28;20041;-70
2023/12/19 01:42:35;;;;;;;80.55;30.55;;;6.90;99.90;;;;;;5063033;28;20044;-71
2023/12/19 01:45:10;;;;;;;73.28;30.08;;;7.00;99.90;;;;;;5063132;28;20055;-71
2023/12/19 01:47:38;;;;;;;71.93;28.45;;;6.90;99.90;;;;;;5062921;28;20118;-71
2023/12/19 01:50:05;;;;;;;74.85;29.05;;;6.90;99.90;;;;;;5062683;28;20029;-69
2023/12/19 01:52:31;;;;;;;75.10;30.98;;;6.90;99.90;;;;;;5060572;28;20056;-69
2023/12/19 01:54:58;;;;;;;81.97;31.42;;;6.90;99.90;;;;;;5062707;28;20085;-70
2023/12/19 01:57:24;;;;;;;77.93;29.17;;;6.90;99.90;;;;;;5061310;28;20017;-69
2023/12/19 01:59:50;;;;;;;85.00;31.23;;;6.90;99.90;;;;;;5062782;28;20025;-68
2023/12/19 02:02:15;;;;;;;77.70;28.77;;;6.90;99.90;;;;;;5062227;28;20532;-68
2023/12/19 02:04:41;;;;;;;78.93;28.90;;;6.90;99.90;;;;;;5062774;28;20512;-70
2023/12/19 02:07:07;;;;;;;67.10;27.63;;;6.80;99.90;;;;;;5063289;28;20021;-70
2023/12/19 02:09:33;;;;;;;63.53;26.13;;;6.80;99.90;;;;;;5061731;28;20067;-69
2023/12/19 02:11:59;;;;;;;57.40;23.40;;;6.80;99.90;;;;;;5062005;28;20025;-68
2023/12/19 02:14:24;;;;;;;65.30;27.17;;;6.80;99.90;;;;;;5059913;28;20025;-70
2023/12/19 02:16:50;;;;;;;70.18;27.23;;;6.80;99.90;;;;;;5062117;28;20033;-70
2023/12/19 02:19:16;;;;;;;57.63;22.63;;;6.80;99.90;;;;;;5060285;28;21624;-70
2023/12/19 02:21:41;;;;;;;58.00;23.30;;;6.80;99.90;;;;;;5062287;28;20033;-68
2023/12/19 02:24:07;;;;;;;57.88;23.52;;;6.80;99.90;;;;;;5062364;28;20086;-69
2023/12/19 02:26:33;;;;;;;77.28;28.83;;;6.80;99.90;;;;;;5062887;28;20017;-68
2023/12/19 02:28:59;;;;;;;62.63;24.00;;;6.80;99.90;;;;;;5061307;28;20013;-68
2023/12/19 02:31:25;;;;;;;70.78;26.83;;;6.80;99.90;;;;;;5062887;28;20036;-67
2023/12/19 02:33:50;;;;;;;61.53;25.42;;;6.80;99.90;;;;;;5062637;28;20029;-66
2023/12/19 02:36:19;;;;;;;58.47;23.75;;;6.80;99.90;;;;;;5062508;28;20080;-67
2023/12/19 02:38:44;;;;;;;66.03;26.50;;;6.80;99.90;;;;;;5062537;28;20032;-69
2023/12/19 02:41:10;;;;;;;72.25;28.27;;;6.80;99.90;;;;;;5062031;28;20048;-66
2023/12/19 02:43:37;;;;;;;60.00;23.92;;;6.80;99.90;;;;;;5061863;28;20043;-69
2023/12/19 02:46:02;;;;;;;75.38;29.13;;;6.80;99.90;;;;;;5062565;28;20009;-70
2023/12/19 02:48:28;;;;;;;63.33;24.15;;;6.80;99.90;;;;;;5061039;28;20036;-69
2023/12/19 02:50:53;;;;;;;61.88;24.60;;;6.80;99.90;;;;;;5062307;28;20111;-68
2023/12/19 02:53:19;;;;;;;66.85;27.42;;;6.80;99.90;;;;;;5062203;28;20092;-69
2023/12/19 02:55:45;;;;;;;73.85;28.42;;;6.80;99.90;;;;;;5062156;28;20029;-69
2023/12/19 02:58:10;;;;;;;66.53;26.83;;;6.80;99.90;;;;;;5062021;28;20080;-65
2023/12/19 03:00:36;;;;;;;64.57;25.27;;;6.80;99.90;;;;;;5061344;28;20032;-68
2023/12/19 03:03:02;;;;;;;67.85;27.00;;;6.80;99.90;;;;;;5057808;28;20105;-70
2023/12/19 03:05:28;;;;;;;68.93;27.92;;;6.80;99.90;;;;;;5059223;28;20034;-69
2023/12/19 03:07:55;;;;;;;76.93;28.50;;;6.80;99.90;;;;;;5060821;28;20074;-69
2023/12/19 03:10:20;;;;;;;63.13;24.27;;;6.80;99.90;;;;;;5061481;28;20029;-69
2023/12/19 03:12:46;;;;;;;69.22;26.52;;;6.80;99.90;;;;;;5060915;28;20029;-68
2023/12/19 03:15:11;;;;;;;60.90;24.85;;;6.80;99.90;;;;;;5060318;28;20028;-69
2023/12/19 03:17:37;;;;;;;69.85;28.25;;;6.80;99.90;;;;;;5060827;28;20032;-68
2023/12/19 03:20:03;;;;;;;69.88;27.27;;;6.80;99.90;;;;;;5060879;28;20029;-68
2023/12/19 03:22:28;;;;;;;64.30;25.27;;;6.80;99.90;;;;;;5060921;28;20040;-68
2023/12/19 03:24:56;;;;;;;67.75;26.88;;;6.80;99.90;;;;;;5061031;28;20450;-67
2023/12/19 03:27:21;;;;;;;69.85;26.70;;;6.80;99.90;;;;;;5060083;28;20033;-68
2023/12/19 03:29:47;;;;;;;75.70;29.33;;;6.80;99.90;;;;;;5060767;28;20505;-67
2023/12/19 03:32:12;;;;;;;71.22;27.17;;;6.90;99.90;;;;;;5060488;28;20056;-68
2023/12/19 03:34:38;;;;;;;62.75;24.00;;;6.90;99.90;;;;;;5060737;28;20462;-67
2023/12/19 03:37:04;;;;;;;61.35;24.35;;;6.80;99.90;;;;;;5061022;28;20047;-68
2023/12/19 03:39:30;;;;;;;75.28;29.92;;;6.80;99.90;;;;;;5061052;28;20029;-69
2023/12/19 03:41:55;;;;;;;74.85;29.50;;;6.80;99.90;;;;;;5059478;28;20126;-68
2023/12/19 03:44:21;;;;;;;77.55;29.40;;;6.80;99.90;;;;;;5058631;28;20025;-68
2023/12/19 03:46:46;;;;;;;87.82;31.50;;;6.80;99.90;;;;;;5059266;28;20083;-68
2023/12/19 03:49:13;;;;;;;82.45;31.02;;;6.80;99.90;;;;;;5060462;28;20371;-69
2023/12/19 03:51:38;;;;;;;72.25;26.77;;;6.90;99.90;;;;;;5060807;28;20070;-68
2023/12/19 03:54:04;;;;;;;80.47;29.73;;;6.80;99.90;;;;;;5060052;28;20037;-68
2023/12/19 03:56:30;;;;;;;80.65;28.08;;;6.80;99.90;;;;;;5060819;28;20017;-70
2023/12/19 03:58:55;;;;;;;63.65;24.73;;;6.80;99.90;;;;;;5060935;28;20040;-70
2023/12/19 04:01:23;;;;;;;57.15;22.42;;;6.80;99.90;;;;;;5059000;28;20104;-70
2023/12/19 04:03:50;;;;;;;58.42;21.63;;;6.70;99.90;;;;;;5058831;28;20080;-69
2023/12/19 04:06:15;;;;;;;55.80;21.45;;;6.70;99.90;;;;;;5059434;28;20032;-68
2023/12/19 04:08:41;;;;;;;55.90;22.80;;;6.70;99.90;;;;;;5060666;28;20047;-68
2023/12/19 04:11:06;;;;;;;61.05;24.40;;;6.70;99.90;;;;;;5060520;28;20017;-69
2023/12/19 04:13:32;;;;;;;58.15;23.05;;;6.70;99.90;;;;;;5060274;28;20390;-71
2023/12/19 04:15:58;;;;;;;50.28;20.08;;;6.70;99.90;;;;;;5060516;28;20025;-71
2023/12/19 04:18:23;;;;;;;45.42;17.67;;;6.60;99.90;;;;;;5060597;28;20025;-70
2023/12/19 04:20:49;;;;;;;59.83;23.48;;;6.60;99.90;;;;;;5060555;28;20025;-69
2023/12/19 04:23:15;;;;;;;57.22;22.45;;;6.60;99.90;;;;;;5060110;28;20057;-68
2023/12/19 04:25:41;;;;;;;50.80;21.58;;;6.60;99.90;;;;;;5058372;28;20080;-69
2023/12/19 04:28:06;;;;;;;52.35;20.73;;;6.60;99.90;;;;;;5058229;28;20052;-66
2023/12/19 04:30:32;;;;;;;48.38;21.33;;;6.60;99.90;;;;;;5059207;28;20032;-67
2023/12/19 04:32:57;;;;;;;48.05;19.83;;;6.60;99.90;;;;;;5060440;28;20759;-70
2023/12/19 04:35:23;;;;;;;48.95;19.40;;;6.60;99.90;;;;;;5060421;28;20043;-70
2023/12/19 04:37:48;;;;;;;43.63;17.35;;;6.60;99.90;;;;;;5057558;28;20037;-69
2023/12/19 04:40:14;;;;;;;40.17;16.48;;;6.60;99.90;;;;;;5058671;28;20035;-69
2023/12/19 04:42:40;;;;;;;43.22;17.27;;;6.60;99.90;;;;;;5059034;28;20051;-68
2023/12/19 04:45:06;;;;;;;35.42;14.75;;;6.60;99.90;;;;;;5060149;28;20163;-68
2023/12/19 04:47:31;;;;;;;41.55;17.75;;;6.60;99.90;;;;;;5060385;28;20025;-69
2023/12/19 04:49:57;;;;;;;41.20;16.95;;;6.60;99.90;;;;;;5058933;28;20420;-71
2023/12/19 04:52:22;;;;;;;37.63;16.10;;;6.60;99.90;;;;;;5060505;28;20021;-67
2023/12/19 04:54:48;;;;;;;38.67;16.00;;;6.60;99.90;;;;;;5059753;28;20021;-67
2023/12/19 04:57:14;;;;;;;34.35;14.32;;;6.60;99.90;;;;;;5058805;28;20021;-68
2023/12/19 04:59:39;;;;;;;27.05;12.07;;;6.60;99.90;;;;;;5056547;28;20021;-68
2023/12/19 05:02:05;;;;;;;31.45;13.45;;;6.60;99.90;;;;;;5059652;28;20489;-67
2023/12/19 05:04:31;;;;;;;32.47;13.35;;;6.60;99.90;;;;;;5060305;28;20025;-69
2023/12/19 05:06:57;;;;;;;26.58;11.82;;;6.60;99.90;;;;;;5064041;28;20110;-70
2023/12/19 05:09:22;;;;;;;30.13;12.75;;;6.50;99.90;;;;;;5062402;28;20535;-70
2023/12/19 05:11:48;;;;;;;26.67;11.80;;;6.50;99.90;;;;;;5062464;28;20033;-68
2023/12/19 05:14:13;;;;;;;27.98;12.45;;;6.50;99.90;;;;;;5061869;28;20024;-69
2023/12/19 05:16:39;;;;;;;24.63;12.30;;;6.50;99.90;;;;;;5063742;28;20110;-68
2023/12/19 05:19:04;;;;;;;24.13;11.20;;;6.60;99.90;;;;;;5063684;28;20028;-68
2023/12/19 05:21:37;;;;;;;25.75;11.05;;;6.60;99.90;;;;;;5062633;28;20032;-70
2023/12/19 05:24:03;;;;;;;25.75;11.18;;;6.60;99.90;;;;;;5061777;28;20024;-68
2023/12/19 05:26:28;;;;;;;26.20;10.57;;;6.50;99.90;;;;;;5060793;28;20045;-68
2023/12/19 05:28:57;;;;;;;27.13;12.25;;;6.60;99.90;;;;;;5061979;28;20504;-68
2023/12/19 05:31:23;;;;;;;25.58;10.05;;;6.60;99.90;;;;;;5060082;28;20220;-69
2023/12/19 05:33:48;;;;;;;25.63;11.10;;;6.60;99.90;;;;;;5063690;28;20029;-68
2023/12/19 05:36:14;;;;;;;21.10;9.30;;;6.60;99.90;;;;;;5063965;28;20032;-70
2023/12/19 05:38:40;;;;;;;24.73;10.50;;;6.60;99.90;;;;;;5063828;28;20017;-68
2023/12/19 05:41:05;;;;;;;21.98;9.75;;;6.60;99.90;;;;;;5063767;28;20028;-69
2023/12/19 05:43:31;;;;;;;20.85;10.52;;;6.50;99.90;;;;;;5063771;28;20044;-67
2023/12/19 05:45:59;;;;;;;20.42;8.73;;;6.50;99.90;;;;;;5063819;28;20025;-66
2023/12/19 05:48:24;;;;;;;23.45;10.48;;;6.50;99.90;;;;;;5063569;28;20575;-68
2023/12/19 05:50:50;;;;;;;23.70;9.45;;;6.50;99.90;;;;;;5063585;28;20025;-68
2023/12/19 05:53:15;;;;;;;26.15;9.63;;;6.50;99.90;;;;;;5063550;28;20024;-68
2023/12/19 05:55:43;;;;;;;21.13;10.13;;;6.50;99.90;;;;;;5063485;28;20013;-68
2023/12/19 05:58:09;;;;;;;20.90;10.00;;;6.50;99.90;;;;;;5063411;28;20017;-66
2023/12/19 06:00:35;;;;;;;22.20;10.73;;;6.50;99.90;;;;;;5053482;28;20031;-67
2023/12/19 06:03:00;;;;;;;24.60;10.43;;;6.50;99.90;;;;;;5062774;28;20045;-67
2023/12/19 06:05:26;;;;;;;21.00;9.20;;;6.50;99.90;;;;;;5062461;28;20032;-69
2023/12/19 06:07:51;;;;;;;20.67;9.98;;;6.60;99.90;;;;;;5061902;28;20029;-68
2023/12/19 06:10:17;;;;;;;27.65;11.60;;;6.50;99.90;;;;;;5063103;28;20481;-69
2023/12/19 06:12:43;;;;;;;23.67;9.77;;;6.50;99.90;;;;;;5063263;28;20063;-67
2023/12/19 06:15:13;;;;;;;21.83;9.38;;;6.50;99.90;;;;;;5062841;28;20055;-68
2023/12/19 06:17:48;;;;;;;21.52;9.63;;;6.50;99.90;;;;;;5057078;28;20075;-68
2023/12/19 06:20:13;;;;;;;20.90;9.57;;;6.50;99.90;;;;;;5061445;28;20031;-68
2023/12/19 06:22:41;;;;;;;25.27;10.05;;;6.50;99.90;;;;;;5061423;28;20045;-68
2023/12/19 06:25:07;;;;;;;19.60;9.70;;;6.50;99.90;;;;;;5062705;28;20021;-69
2023/12/19 06:27:34;;;;;;;21.58;9.23;;;6.50;99.90;;;;;;5062431;28;20080;-68
2023/12/19 06:30:00;;;;;;;26.38;9.65;;;6.50;99.90;;;;;;5060329;28;20111;-68
2023/12/19 06:32:25;;;;;;;24.23;9.60;;;6.50;99.90;;;;;;5062717;28;20182;-67
2023/12/19 06:34:51;;;;;;;16.75;7.88;;;6.50;99.90;;;;;;5060542;28;20059;-68
2023/12/19 06:37:16;;;;;;;19.13;8.30;;;6.50;99.90;;;;;;5059074;28;20037;-69
2023/12/19 06:39:43;;;;;;;18.13;8.40;;;6.50;99.90;;;;;;5062081;28;20029;-68
2023/12/19 06:42:09;;;;;;;19.65;8.73;;;6.50;99.90;;;;;;5062543;28;20029;-69
2023/12/19 06:44:35;;;;;;;22.85;8.63;;;6.50;99.90;;;;;;5062368;28;20021;-69
2023/12/19 06:47:00;;;;;;;17.05;7.38;;;6.50;99.90;;;;;;5061903;28;20091;-69
2023/12/19 06:49:26;;;;;;;14.77;6.78;;;6.50;99.90;;;;;;5056695;28;20037;-69
2023/12/19 06:51:53;;;;;;;16.77;6.97;;;6.50;99.90;;;;;;5060129;28;20041;-70
2023/12/19 06:54:18;;;;;;;12.38;5.53;;;6.50;99.90;;;;;;5060586;28;20032;-69
2023/12/19 06:56:44;;;;;;;14.95;6.82;;;6.50;99.90;;;;;;5059142;28;20021;-68
2023/12/19 06:59:09;;;;;;;15.93;7.05;;;6.50;99.90;;;;;;5058894;28;20033;-68
2023/12/19 07:01:35;;;;;;;16.40;6.90;;;6.50;99.90;;;;;;5057997;28;20044;-70
2023/12/19 07:04:01;;;;;;;16.00;5.50;;;6.50;99.90;;;;;;5058326;28;20033;-68
2023/12/19 07:06:27;;;;;;;12.80;5.40;;;6.50;99.90;;;;;;5061062;28;20056;-70
2023/12/19 07:08:53;;;;;;;15.10;6.60;;;6.50;99.90;;;;;;5059450;28;20065;-67
2023/12/19 07:11:20;;;;;;;11.95;4.97;;;6.50;99.90;;;;;;5059362;28;20047;-69
2023/12/19 07:13:46;;;;;;;15.02;6.60;;;6.50;99.90;;;;;;5059945;28;20032;-70
2023/12/19 07:16:17;;;;;;;16.05;5.20;;;6.50;99.90;;;;;;5056690;28;20045;-68
2023/12/19 07:18:44;;;;;;;10.80;5.60;;;6.40;99.90;;;;;;5061243;28;20017;-69
2023/12/19 07:21:23;;;;;;;11.90;5.70;;;6.40;99.90;;;;;;5059523;28;20025;-69
2023/12/19 07:23:52;;;;;;;14.65;5.70;;;6.40;99.90;;;;;;5061309;28;20178;-69
2023/12/19 07:26:20;;;;;;;12.82;6.60;;;6.40;99.90;;;;;;5060429;28;20033;-68
2023/12/19 07:28:45;;;;;;;11.18;6.25;;;6.40;99.90;;;;;;5058578;28;20025;-71
2023/12/19 07:31:25;;;;;;;13.73;6.75;;;6.40;99.90;;;;;;5061623;28;20025;-68
2023/12/19 07:33:55;;;;;;;14.07;6.00;;;6.40;99.90;;;;;;5058093;28;20363;-70
2023/12/19 07:36:21;;;;;;;14.82;6.93;;;6.40;99.90;;;;;;5060477;28;20028;-70
2023/12/19 07:38:47;;;;;;;15.13;7.43;;;6.40;99.90;;;;;;5054340;28;20086;-70
2023/12/19 07:41:12;;;;;;;13.77;6.57;;;6.40;99.90;;;;;;5056895;28;20055;-69
2023/12/19 07:43:38;;;;;;;15.50;6.93;;;6.40;99.90;;;;;;5056625;28;20029;-69
2023/12/19 07:46:06;;;;;;;23.48;9.52;;;6.40;99.90;;;;;;5056406;28;20033;-68
2023/12/19 07:48:31;;;;;;;33.50;14.57;;;6.40;99.90;;;;;;5058566;28;20028;-69
2023/12/19 07:50:58;;;;;;;35.00;16.95;;;6.40;99.90;;;;;;5057764;28;20051;-69
2023/12/19 07:53:25;;;;;;;27.42;13.00;;;6.40;99.90;;;;;;5060721;28;20029;-69
2023/12/19 07:55:51;;;;;;;38.78;15.27;;;6.40;99.90;;;;;;5056807;28;20029;-70
2023/12/19 07:58:17;;;;;;;30.70;12.32;;;6.40;99.90;;;;;;5059319;28;20025;-70
2023/12/19 08:00:43;;;;;;;30.73;13.90;;;6.40;99.90;;;;;;5058535;28;20082;-71
2023/12/19 08:03:09;;;;;;;31.98;12.48;;;6.40;99.90;;;;;;5058627;28;20070;-69
2023/12/19 08:05:34;;;;;;;23.85;10.32;;;6.40;99.90;;;;;;5058948;28;20080;-69
2023/12/19 08:08:00;;;;;;;16.65;8.48;;;6.40;99.90;;;;;;5053471;28;20033;-69
2023/12/19 08:10:26;;;;;;;19.92;9.18;;;6.40;99.90;;;;;;5056373;28;20100;-69
2023/12/19 08:12:52;;;;;;;22.00;10.13;;;6.40;99.90;;;;;;5058168;28;20036;-69
2023/12/19 08:15:18;;;;;;;18.70;8.27;;;6.40;99.90;;;;;;5060440;28;20033;-68
2023/12/19 08:17:43;;;;;;;20.25;9.05;;;6.50;99.90;;;;;;5060065;28;20029;-68
2023/12/19 08:20:15;;;;;;;25.95;9.98;;;6.50;99.90;;;;;;5059934;28;20323;-70
2023/12/19 08:22:41;;;;;;;19.08;9.85;;;6.50;99.90;;;;;;5058195;28;20044;-70
2023/12/19 08:25:08;;;;;;;19.95;8.57;;;6.50;99.90;;;;;;5056018;28;20037;-70
2023/12/19 08:27:35;;;;;;;20.05;8.63;;;6.50;99.90;;;;;;5054355;28;20047;-71
2023/12/19 08:30:04;;;;;;;20.42;8.65;;;6.50;99.90;;;;;;5058668;28;20025;-69
2023/12/19 08:32:30;;;;;;;19.05;7.45;;;6.50;99.90;;;;;;5060273;28;20028;-70
2023/12/19 08:34:58;;;;;;;20.45;9.10;;;6.50;99.90;;;;;;5060721;28;20161;-69
2023/12/19 08:37:24;;;;;;;18.75;8.13;;;6.50;99.90;;;;;;5059999;28;20482;-69
2023/12/19 08:39:54;;;;;;;17.55;7.80;;;6.50;99.90;;;;;;5062880;28;20025;-70
2023/12/19 08:42:20;;;;;;;21.17;8.60;;;6.50;99.90;;;;;;5064186;28;20131;-70
2023/12/19 08:44:46;;;;;;;17.50;7.13;;;6.50;99.90;;;;;;5064706;28;20085;-70
2023/12/19 08:47:12;;;;;;;21.88;9.10;;;6.50;99.90;;;;;;5064703;28;20025;-69
2023/12/19 08:49:43;;;;;;;17.65;7.15;;;6.50;99.90;;;;;;5064759;28;20025;-69
2023/12/19 08:52:09;;;;;;;17.52;7.68;;;6.50;99.90;;;;;;5064605;28;20017;-69
2023/12/19 08:54:35;;;;;;;18.23;7.80;;;6.50;99.90;;;;;;5063773;28;20025;-69
2023/12/19 08:57:00;;;;;;;19.55;8.90;;;6.50;99.90;;;;;;5063486;28;20025;-69
2023/12/19 08:59:26;;;;;;;23.05;11.05;;;6.50;99.90;;;;;;5063546;28;20091;-69
2023/12/19 09:01:52;;;;;;;18.48;8.88;;;6.50;99.90;;;;;;5059426;28;20159;-70
2023/12/19 09:04:19;;;;;;;20.60;9.18;;;6.60;99.90;;;;;;5059166;28;20060;-68
2023/12/19 09:06:44;;;;;;;21.77;10.10;;;6.60;99.90;;;;;;5061197;28;20092;-71
2023/12/19 09:09:11;;;;;;;19.52;9.40;;;6.50;99.90;;;;;;5062542;28;20025;-68
2023/12/19 09:11:37;;;;;;;18.85;8.98;;;6.60;99.90;;;;;;5060129;28;20048;-72
2023/12/19 09:14:03;;;;;;;20.77;8.93;;;6.60;99.90;;;;;;5057541;28;20113;-71
2023/12/19 09:16:28;;;;;;;20.40;9.75;;;6.60;99.90;;;;;;5060400;28;20033;-70
2023/12/19 09:18:55;;;;;;;18.30;8.27;;;6.60;99.90;;;;;;5060292;28;20031;-69
2023/12/19 09:21:21;;;;;;;16.30;8.25;;;6.60;99.90;;;;;;5063755;28;20021;-68
2023/12/19 09:23:47;;;;;;;20.13;9.73;;;6.60;99.90;;;;;;5063869;28;20123;-71
2023/12/19 09:26:14;;;;;;;21.33;10.00;;;6.60;99.90;;;;;;5064009;28;20079;-69
2023/12/19 09:28:40;;;;;;;21.73;10.52;;;6.60;99.90;;;;;;5062702;28;20359;-70
2023/12/19 09:31:08;;;;;;;24.65;10.93;;;6.60;99.90;;;;;;5061302;28;20048;-69
2023/12/19 09:33:37;;;;;;;24.02;11.18;;;6.60;99.90;;;;;;5054001;28;20029;-69
2023/12/19 09:36:09;;;;;;;22.48;10.68;;;6.70;99.90;;;;;;5052291;28;20029;-70
2023/12/19 09:38:36;;;;;;;30.95;11.32;;;6.70;99.90;;;;;;5056425;28;20029;-69
2023/12/19 09:41:03;;;;;;;23.98;11.20;;;6.70;99.90;;;;;;5054432;28;20119;-71
2023/12/19 09:43:33;;;;;;;27.33;11.77;;;6.70;99.90;;;;;;5061495;28;20032;-70
2023/12/19 09:46:01;;;;;;;30.77;12.82;;;6.70;99.90;;;;;;5061134;28;20021;-71
2023/12/19 09:48:33;;;;;;;23.60;11.50;;;6.70;99.90;;;;;;5058375;28;20029;-69
2023/12/19 09:51:03;;;;;;;25.77;11.75;;;6.80;99.90;;;;;;5055919;28;20052;-71
2023/12/19 09:53:33;;;;;;;25.17;11.23;;;6.80;99.90;;;;;;5061257;28;20492;-69
2023/12/19 09:55:59;;;;;;;25.58;11.02;;;6.80;99.90;;;;;;5061625;28;20024;-71
2023/12/19 09:58:25;;;;;;;24.73;11.00;;;6.80;99.90;;;;;;5062484;28;20092;-69
2023/12/19 10:00:52;;;;;;;26.65;11.00;;;6.80;99.90;;;;;;5059806;28;20025;-68
2023/12/19 10:03:18;;;;;;;20.67;9.95;;;6.80;99.90;;;;;;5061288;28;20041;-70
2023/12/19 10:05:44;;;;;;;21.25;10.38;;;6.80;99.90;;;;;;5060864;28;20033;-70
2023/12/19 10:08:10;;;;;;;24.25;10.50;;;6.80;99.90;;;;;;5060569;28;20025;-69
2023/12/19 10:10:56;;;;;;;21.08;9.73;;;6.80;99.90;;;;;;5059618;28;20170;-68
2023/12/19 10:13:32;;;;;;;20.67;9.32;;;6.80;99.90;;;;;;5054452;28;20347;-69
2023/12/19 10:16:17;;;;;;;33.88;14.57;;;6.90;99.90;;;;;;5061960;28;20029;-69
2023/12/19 10:18:44;;;;;;;29.35;12.48;;;6.90;99.90;;;;;;5058400;28;20024;-70
2023/12/19 10:21:11;;;;;;;27.88;12.52;;;6.90;99.90;;;;;;5060199;28;20102;-69
2023/12/19 10:23:40;;;;;;;26.88;10.65;;;6.90;99.90;;;;;;5059084;28;20048;-69
2023/12/19 10:26:07;;;;;;;32.15;12.48;;;6.90;99.90;;;;;;5060923;28;20063;-69
2023/12/19 10:28:33;;;;;;;27.90;12.00;;;6.90;99.90;;;;;;5062249;28;20025;-69
2023/12/19 10:31:15;;;;;;;44.50;17.70;;;6.90;99.90;;;;;;5058687;28;20049;-67
2023/12/19 10:33:49;;;;;;;69.75;25.60;;;6.90;99.90;;;;;;5050150;28;20123;-68
2023/12/19 10:36:23;;;;;;;46.83;15.98;;;6.90;99.90;;;;;;5052501;28;20033;-70
2023/12/19 10:38:48;;;;;;;67.93;22.33;;;7.00;99.90;;;;;;5054613;28;20029;-68
2023/12/19 10:41:31;;;;;;;47.75;18.90;;;7.00;99.90;;;;;;5060371;28;20032;-68
2023/12/19 10:43:59;;;;;;;20.05;9.60;;;7.00;99.90;;;;;;5059366;28;20083;-71
2023/12/19 10:46:30;;;;;;;17.20;8.15;;;7.00;99.90;;;;;;5061534;28;20023;-67
2023/12/19 10:48:58;;;;;;;16.50;7.63;;;7.00;99.90;;;;;;5060835;28;20033;-70
2023/12/19 10:51:30;;;;;;;18.63;8.00;;;7.00;99.90;;;;;;5059992;28;20117;-67
2023/12/19 10:54:05;;;;;;;18.02;7.47;;;7.00;99.90;;;;;;5060886;28;20506;-69
2023/12/19 10:56:38;;;;;;;16.55;7.10;;;7.10;99.90;;;;;;5061567;28;20033;-69
2023/12/19 10:59:07;;;;;;;18.90;8.00;;;7.10;99.90;;;;;;5061577;28;20025;-68
2023/12/19 11:01:39;;;;;;;21.27;6.97;;;7.10;99.90;;;;;;5060958;28;20087;-69
2023/12/19 11:04:13;;;;;;;18.05;7.28;;;7.10;99.90;;;;;;5060013;28;20450;-68
2023/12/19 11:06:45;;;;;;;18.08;7.72;;;7.10;99.90;;;;;;5061363;28;20044;-69
2023/12/19 11:09:15;;;;;;;21.70;8.88;;;7.10;99.90;;;;;;5061508;28;20041;-67
2023/12/19 11:11:42;;;;;;;18.63;7.93;;;7.10;99.90;;;;;;5060801;28;20020;-67
2023/12/19 11:14:08;;;;;;;16.30;7.70;;;7.10;99.90;;;;;;5061430;28;20036;-69
2023/12/19 11:16:36;;;;;;;15.82;7.78;;;7.10;99.90;;;;;;5061437;28;20052;-68
2023/12/19 11:19:17;;;;;;;20.40;9.32;;;7.10;99.90;;;;;;5061073;28;20057;-68
2023/12/19 11:21:49;;;;;;;21.75;8.25;;;7.10;99.90;;;;;;5060936;28;20085;-66
2023/12/19 11:24:21;;;;;;;18.00;7.68;;;7.10;99.90;;;;;;5059210;28;20013;-68
2023/12/19 11:26:59;;;;;;;22.85;9.25;;;7.10;99.90;;;;;;5059582;28;20025;-69
2023/12/19 11:29:45;;;;;;;26.65;9.27;;;7.10;99.90;;;;;;5061126;28;20025;-69
2023/12/19 11:32:29;;;;;;;22.38;9.50;;;7.20;99.90;;;;;;5057701;28;20067;-67
2023/12/19 11:35:09;;;;;;;24.98;8.95;;;7.20;99.90;;;;;;5055871;28;20020;-69
2023/12/19 11:37:35;;;;;;;22.52;9.57;;;7.30;99.90;;;;;;5059024;28;20025;-70
2023/12/19 11:40:01;;;;;;;22.13;9.63;;;7.20;99.90;;;;;;5058942;28;20056;-69
2023/12/19 11:42:38;;;;;;;20.90;9.02;;;7.30;99.90;;;;;;5051028;28;20037;-70
2023/12/19 11:45:16;;;;;;;24.67;10.30;;;7.20;99.90;;;;;;5046303;28;20037;-68
2023/12/19 11:47:42;;;;;;;23.60;9.95;;;7.30;99.90;;;;;;5057959;28;20037;-68
2023/12/19 11:50:07;;;;;;;24.08;10.05;;;7.30;99.90;;;;;;5054171;28;20042;-68
2023/12/19 11:52:37;;;;;;;28.92;11.60;;;7.30;99.90;;;;;;5055379;28;20025;-69
2023/12/19 11:55:07;;;;;;;28.52;12.27;;;7.30;99.90;;;;;;5057061;28;20085;-66
2023/12/19 11:57:33;;;;;;;24.75;11.13;;;7.30;99.90;;;;;;5059455;28;20025;-69
2023/12/19 12:00:00;;;;;;;22.70;10.18;;;7.30;99.90;;;;;;5060944;28;20113;-69
2023/12/19 12:02:34;;;;;;;22.10;10.18;;;7.30;99.90;;;;;;5060051;28;20057;-65
2023/12/19 12:05:16;;;;;;;23.55;11.85;;;7.30;99.90;;;;;;5057659;28;20142;-67
2023/12/19 12:07:51;;;;;;;20.20;9.75;;;7.40;99.90;;;;;;5059355;28;20048;-67
2023/12/19 12:10:21;;;;;;;22.13;10.13;;;7.40;99.90;;;;;;5058102;28;20111;-67
2023/12/19 12:12:48;;;;;;;24.25;10.73;;;7.40;99.90;;;;;;5055814;28;20036;-69
2023/12/19 12:15:22;;;;;;;23.60;11.73;;;7.40;99.90;;;;;;5057215;28;20040;-69
2023/12/19 12:18:00;;;;;;;20.42;9.88;;;7.40;99.90;;;;;;5056900;28;20025;-69
2023/12/19 12:20:26;;;;;;;24.42;10.98;;;7.40;99.90;;;;;;5057298;28;20577;-70
2023/12/19 12:22:54;;;;;;;27.00;10.52;;;7.50;99.90;;;;;;5059536;28;20084;-68
2023/12/19 12:25:20;;;;;;;22.80;9.63;;;7.50;99.90;;;;;;5060032;28;20033;-66
2023/12/19 12:27:46;;;;;;;24.55;11.35;;;7.50;99.90;;;;;;5060795;28;20029;-70
2023/12/19 12:30:12;;;;;;;24.42;12.15;;;7.50;99.90;;;;;;5060039;28;20025;-67
2023/12/19 12:32:40;;;;;;;23.55;10.40;;;7.50;99.90;;;;;;5060858;28;20060;-68
2023/12/19 12:35:30;;;;;;;23.88;10.40;;;7.50;99.90;;;;;;5060747;28;20025;-68
2023/12/19 12:37:58;;;;;;;23.83;9.40;;;7.50;99.90;;;;;;5058008;28;20024;-68
2023/12/19 12:40:25;;;;;;;23.08;10.45;;;7.50;99.90;;;;;;5058713;28;20064;-68